Time;durP1;ratioP1;P1;durP2;ratioP2;P2;SDS_P1;SDS_P2;PMS_P1;PMS_P2;Temp;Humidity;BMP_temperature;BMP_pressure;BME280_temperature;BME280_humidity;BME280_pressure;Samples;Min_cycle;Max_cycle;Signal;HPM_P1;HPM_P2
2023/08/19 00:00:05;;;;;;;16.65;9.05;;;;;;;-144.73;100.00;54469.28;4999034;28;20053;-72
2023/08/19 00:02:30;;;;;;;21.33;9.43;;;;;;;-144.73;100.00;54477.47;5007520;28;20086;-72
2023/08/19 00:04:56;;;;;;;13.52;9.40;;;;;;;-144.73;100.00;54438.50;5003267;28;20132;-72
2023/08/19 00:07:21;;;;;;;15.27;8.57;;;;;;;-144.73;100.00;54440.53;4997439;28;20030;-73
2023/08/19 00:09:46;;;;;;;14.63;8.98;;;;;;;-144.73;100.00;54489.81;4996440;28;20062;-72
2023/08/19 00:12:11;;;;;;;19.20;9.38;;;;;;;-144.73;100.00;54487.75;5012095;28;20057;-72
2023/08/19 00:14:37;;;;;;;14.70;8.73;;;;;;;-144.73;100.00;54465.16;5007732;28;20034;-72
2023/08/19 00:17:03;;;;;;;14.18;9.43;;;;;;;-144.73;100.00;54495.97;4996970;28;20035;-72
2023/08/19 00:19:28;;;;;;;17.23;9.75;;;;;;;-144.73;100.00;54461.06;5006823;28;20034;-72
2023/08/19 00:21:54;;;;;;;18.30;9.23;;;;;;;-144.73;100.00;54461.06;4995529;28;20092;-72
2023/08/19 00:24:20;;;;;;;21.95;10.10;;;;;;;-144.73;100.00;54481.59;4997252;28;20088;-72
2023/08/19 00:26:45;;;;;;;19.45;9.55;;;;;;;-144.73;100.00;54487.75;4993828;28;20027;-72
2023/08/19 00:29:10;;;;;;;18.23;9.23;;;;;;;-144.73;100.00;54481.59;4985316;28;20047;-72
2023/08/19 00:31:39;;;;;;;19.33;10.57;;;;;;;-144.73;100.00;54495.97;4999294;28;20433;-72
2023/08/19 00:34:05;;;;;;;22.35;9.20;;;;;;;-144.73;100.00;54489.81;4999980;28;20022;-72
2023/08/19 00:36:30;;;;;;;18.98;9.57;;;;;;;-144.73;100.00;54489.81;5003497;28;20171;-72
2023/08/19 00:38:56;;;;;;;15.80;10.43;;;;;;;-144.73;100.00;54469.28;5001862;28;20113;-72
2023/08/19 00:41:22;;;;;;;21.80;9.00;;;;;;;-144.73;100.00;54477.47;5006268;28;20018;-72
2023/08/19 00:43:47;;;;;;;15.15;9.05;;;;;;;-144.73;100.00;54477.47;5001151;28;20026;-72
2023/08/19 00:46:12;;;;;;;23.13;9.52;;;;;;;-144.73;100.00;54444.66;4992438;28;20038;-72
2023/08/19 00:48:39;;;;;;;20.02;10.27;;;;;;;-144.73;100.00;54510.31;5006936;28;20027;-72
2023/08/19 00:51:05;;;;;;;22.00;9.93;;;;;;;-144.73;100.00;54446.69;4992957;28;20070;-73
2023/08/19 00:53:32;;;;;;;19.48;10.98;;;;;;;-144.73;100.00;54452.84;4995766;28;20371;-71
2023/08/19 00:55:58;;;;;;;14.55;11.15;;;;;;;-144.73;100.00;54446.69;4992142;28;20031;-72
2023/08/19 00:58:24;;;;;;;16.30;9.30;;;;;;;-144.73;100.00;54456.97;4994537;28;20018;-72
2023/08/19 01:00:49;;;;;;;18.35;10.38;;;;;;;-144.73;100.00;54465.16;5006779;28;20042;-72
2023/08/19 01:03:15;;;;;;;17.20;10.32;;;;;;;-144.73;100.00;54456.97;5002125;28;20038;-72
2023/08/19 01:05:52;;;;;;;18.02;10.35;;;;;;;-144.73;100.00;54454.91;5007265;28;20058;-72
2023/08/19 01:08:25;;;;;;;20.15;10.82;;;;;;;-144.73;100.00;54489.81;4998024;28;20031;-72
2023/08/19 01:11:05;;;;;;;19.48;11.60;;;;;;;-144.73;100.00;54495.97;4990616;28;20034;-73
2023/08/19 01:13:36;;;;;;;18.45;11.38;;;;;;;-144.73;100.00;54461.06;4991968;28;20206;-72
2023/08/19 01:16:17;;;;;;;15.02;10.48;;;;;;;-144.73;100.00;54481.59;4994374;28;20057;-72
2023/08/19 01:18:43;;;;;;;28.23;11.98;;;;;;;-144.73;100.00;54456.97;4991020;28;20031;-72
2023/08/19 01:21:10;;;;;;;18.17;11.63;;;;;;;-144.73;100.00;54454.91;4995270;28;20038;-73
2023/08/19 01:23:42;;;;;;;19.63;11.57;;;;;;;-144.73;100.00;54459.00;5000398;28;20025;-72
2023/08/19 01:26:07;;;;;;;;;;;;;;;-144.73;100.00;54450.81;5002424;28;20045;-73
2023/08/19 01:28:32;;;;;;;11.77;9.60;;;;;;;-144.73;100.00;54448.75;4992874;28;19913;-73
2023/08/19 01:30:58;;;;;;;17.58;10.05;;;;;;;-144.73;100.00;54506.22;4999232;28;20066;-73
2023/08/19 01:33:24;;;;;;;20.08;11.32;;;;;;;-144.73;100.00;54481.59;4990979;28;20030;-72
2023/08/19 01:36:01;;;;;;;20.50;12.55;;;;;;;-144.73;100.00;54481.59;5006644;28;20089;-73
2023/08/19 01:38:39;;;;;;;21.30;13.00;;;;;;;-144.73;100.00;54440.53;4999735;28;20029;-73
2023/08/19 01:41:04;;;;;;;17.27;10.98;;;;;;;-144.73;100.00;54469.28;5003113;28;20030;-72
2023/08/19 01:43:31;;;;;;;18.80;10.80;;;;;;;-144.73;100.00;54483.66;4998301;28;20099;-72
2023/08/19 01:45:57;;;;;;;20.20;11.68;;;;;;;-144.73;100.00;54461.06;4997992;28;20026;-73
2023/08/19 01:48:22;;;;;;;15.25;10.45;;;;;;;-144.73;100.00;54479.53;5000868;28;20030;-72
2023/08/19 01:50:48;;;;;;;19.77;12.82;;;;;;;-144.73;100.00;54469.28;4991909;28;20026;-72
2023/08/19 01:53:13;;;;;;;15.07;11.98;;;;;;;-144.73;100.00;54450.81;4980968;28;20062;-72
2023/08/19 01:55:38;;;;;;;22.05;11.50;;;;;;;-144.73;100.00;54477.47;4990678;28;20039;-72
2023/08/19 01:58:04;;;;;;;14.80;11.55;;;;;;;-144.73;100.00;54485.69;4985120;28;20026;-72
2023/08/19 02:00:29;;;;;;;19.20;11.32;;;;;;;-144.73;100.00;54481.59;4990805;28;20041;-72
2023/08/19 02:02:54;;;;;;;29.38;12.18;;;;;;;-144.73;100.00;54510.31;4988004;28;20022;-73
2023/08/19 02:05:20;;;;;;;21.77;12.23;;;;;;;-144.73;100.00;54454.91;4997195;28;20034;-73
2023/08/19 02:07:45;;;;;;;29.63;11.98;;;;;;;-144.73;100.00;54477.47;5000936;28;20018;-72
2023/08/19 02:10:12;;;;;;;18.15;11.82;;;;;;;-144.73;100.00;54456.97;4993049;28;20027;-72
2023/08/19 02:12:37;;;;;;;19.45;12.15;;;;;;;-144.73;100.00;54485.69;4981434;28;20109;-72
2023/08/19 02:15:03;;;;;;;15.40;11.20;;;;;;;-144.73;100.00;54604.75;4990093;28;20117;-71
2023/08/19 02:17:28;;;;;;;20.75;12.80;;;;;;;-144.73;100.00;54483.66;4990443;28;20034;-72
2023/08/19 02:19:54;;;;;;;16.38;11.02;;;;;;;-144.73;100.00;54518.53;4983432;28;20046;-72
2023/08/19 02:22:20;;;;;;;17.83;11.32;;;;;;;-144.73;100.00;54489.81;4987867;28;20018;-72
2023/08/19 02:24:47;;;;;;;18.50;12.60;;;;;;;-144.73;100.00;54469.28;4986309;28;20045;-72
2023/08/19 02:27:12;;;;;;;16.13;11.90;;;;;;;-144.73;100.00;54432.31;4984707;28;20025;-72
2023/08/19 02:29:38;;;;;;;22.67;11.88;;;;;;;-144.73;100.00;54493.91;4989841;28;20031;-71
2023/08/19 02:32:03;;;;;;;16.45;12.48;;;;;;;-144.73;100.00;54481.59;4990172;28;20023;-72
2023/08/19 02:34:29;;;;;;;16.85;11.95;;;;;;;-144.73;100.00;54510.31;4986375;28;20053;-72
2023/08/19 02:36:54;;;;;;;17.38;12.13;;;;;;;-144.73;100.00;54483.66;4982533;28;20273;-71
2023/08/19 02:39:19;;;;;;;21.42;12.23;;;;;;;-144.73;100.00;54450.81;4984632;28;20109;-71
2023/08/19 02:41:45;;;;;;;21.50;13.30;;;;;;;-144.73;100.00;54475.44;4990078;28;20015;-72
2023/08/19 02:44:10;;;;;;;21.05;13.77;;;;;;;-144.73;100.00;54481.59;4990960;28;20062;-72
2023/08/19 02:46:36;;;;;;;13.23;11.07;;;;;;;-144.73;100.00;54483.66;4991914;28;20033;-72
2023/08/19 02:49:02;;;;;;;20.77;12.23;;;;;;;-144.73;100.00;54473.38;4978080;28;20046;-72
2023/08/19 02:51:27;;;;;;;19.77;12.63;;;;;;;-144.73;100.00;54489.81;4994984;28;20032;-73
2023/08/19 02:53:53;;;;;;;21.38;14.48;;;;;;;-144.73;100.00;54506.22;4991895;28;20022;-73
2023/08/19 02:56:18;;;;;;;17.58;11.88;;;;;;;-144.73;100.00;54481.59;5005888;28;20038;-72
2023/08/19 02:58:43;;;;;;;23.60;13.63;;;;;;;-144.73;100.00;54518.53;4998040;28;20097;-73
2023/08/19 03:01:12;;;;;;;17.63;13.13;;;;;;;-144.73;100.00;54485.69;4994982;28;20034;-71
2023/08/19 03:03:37;;;;;;;17.17;12.23;;;;;;;-144.73;100.00;54498.00;4992696;28;20029;-71
2023/08/19 03:06:03;;;;;;;20.27;11.93;;;;;;;-144.73;100.00;54473.38;4996040;28;20030;-72
2023/08/19 03:08:28;;;;;;;15.70;11.32;;;;;;;-144.73;100.00;54498.00;4999545;28;20027;-71
2023/08/19 03:10:54;;;;;;;24.30;13.60;;;;;;;-144.73;100.00;54514.44;4994178;28;20047;-71
2023/08/19 03:13:19;;;;;;;18.25;13.57;;;;;;;-144.73;100.00;54485.69;5000817;28;20026;-71
2023/08/19 03:15:44;;;;;;;21.70;13.20;;;;;;;-144.73;100.00;54498.00;4999853;28;20037;-73
2023/08/19 03:18:10;;;;;;;21.40;12.35;;;;;;;-144.73;100.00;54510.31;4993925;28;20038;-71
2023/08/19 03:20:35;;;;;;;23.13;13.30;;;;;;;-144.73;100.00;54506.22;4990483;28;20458;-72
2023/08/19 03:23:01;;;;;;;18.73;12.55;;;;;;;-144.73;100.00;54485.69;5006087;28;20024;-71
2023/08/19 03:25:26;;;;;;;25.60;12.75;;;;;;;-144.73;100.00;54489.81;4996235;28;20045;-71
2023/08/19 03:27:51;;;;;;;15.98;12.20;;;;;;;-144.73;100.00;54493.91;5007526;28;20018;-72
2023/08/19 03:30:17;;;;;;;18.00;12.80;;;;;;;-144.73;100.00;54502.13;4988756;28;20030;-72
2023/08/19 03:32:42;;;;;;;21.25;12.55;;;;;;;-144.73;100.00;54489.81;4989625;28;20020;-72
2023/08/19 03:35:08;;;;;;;19.58;13.48;;;;;;;-144.73;100.00;54428.22;4993854;28;20048;-72
2023/08/19 03:37:33;;;;;;;15.98;10.57;;;;;;;-144.73;100.00;54489.81;4994330;28;20081;-72
2023/08/19 03:39:59;;;;;;;22.13;12.75;;;;;;;-144.73;100.00;54463.13;4989312;28;20090;-71
2023/08/19 03:42:25;;;;;;;26.35;13.93;;;;;;;-144.73;100.00;54502.13;4998816;28;20109;-70
2023/08/19 03:44:50;;;;;;;15.77;11.48;;;;;;;-144.73;100.00;54506.22;5002035;28;20048;-71
2023/08/19 03:47:16;;;;;;;22.50;12.95;;;;;;;-144.73;100.00;54493.91;4995608;28;20061;-71
2023/08/19 03:49:41;;;;;;;24.63;12.15;;;;;;;-144.73;100.00;54539.06;5002610;28;20040;-71
2023/08/19 03:52:07;;;;;;;30.23;14.52;;;;;;;-144.73;100.00;54469.28;4994075;28;20363;-71
2023/08/19 03:54:33;;;;;;;20.30;12.55;;;;;;;-144.73;100.00;54498.00;4993381;28;20138;-70
2023/08/19 03:56:58;;;;;;;19.73;13.13;;;;;;;-144.73;100.00;54543.16;4995014;28;20034;-70
2023/08/19 03:59:24;;;;;;;17.98;12.70;;;;;;;-144.73;100.00;54477.47;4988758;28;20129;-71
2023/08/19 04:01:49;;;;;;;24.00;11.63;;;;;;;-144.73;100.00;54522.63;5001346;28;20050;-71
2023/08/19 04:04:15;;;;;;;27.25;13.23;;;;;;;-144.73;100.00;54444.66;5001654;28;20045;-71
2023/08/19 04:06:40;;;;;;;21.23;13.13;;;;;;;-144.73;100.00;54465.16;5009647;28;20033;-71
2023/08/19 04:09:07;;;;;;;19.83;11.70;;;;;;;-144.73;100.00;54522.63;4998710;28;20033;-71
2023/08/19 04:11:32;;;;;;;23.48;13.13;;;;;;;-144.73;100.00;54498.00;5002477;28;20029;-72
2023/08/19 04:13:58;;;;;;;25.73;13.93;;;;;;;-144.73;100.00;54508.28;4997123;28;20026;-72
2023/08/19 04:16:24;;;;;;;20.63;13.85;;;;;;;-144.73;100.00;54502.13;5002538;28;20014;-72
2023/08/19 04:18:50;;;;;;;28.92;13.05;;;;;;;-144.73;100.00;54489.81;5000559;28;20029;-72
2023/08/19 04:21:16;;;;;;;22.40;12.88;;;;;;;-144.73;100.00;54518.53;4992598;28;20031;-71
2023/08/19 04:23:42;;;;;;;19.73;13.63;;;;;;;-144.73;100.00;54498.00;4994357;28;20025;-72
2023/08/19 04:26:07;;;;;;;19.27;11.63;;;;;;;-144.73;100.00;54514.44;4987770;28;20031;-71
2023/08/19 04:28:33;;;;;;;20.65;12.70;;;;;;;-144.73;100.00;54518.53;4992505;28;20101;-71
2023/08/19 04:31:06;;;;;;;20.92;12.30;;;;;;;-144.73;100.00;54493.91;4991894;28;20038;-71
2023/08/19 04:33:32;;;;;;;20.75;13.13;;;;;;;-144.73;100.00;54518.53;4994012;28;20030;-71
2023/08/19 04:35:58;;;;;;;18.42;14.00;;;;;;;-144.73;100.00;54518.53;4991963;28;20121;-70
2023/08/19 04:38:24;;;;;;;20.42;14.27;;;;;;;-144.73;100.00;54510.31;4992406;28;20121;-71
2023/08/19 04:40:50;;;;;;;21.25;14.05;;;;;;;-144.73;100.00;54502.13;4991593;28;20110;-71
2023/08/19 04:43:18;;;;;;;17.98;12.68;;;;;;;-144.73;100.00;54469.28;4993413;28;20081;-72
2023/08/19 04:45:44;;;;;;;21.33;12.63;;;;;;;-144.73;100.00;54506.22;4995663;28;20026;-72
2023/08/19 04:48:09;;;;;;;21.67;13.63;;;;;;;-144.73;100.00;54506.22;5008265;28;20018;-71
2023/08/19 04:50:34;;;;;;;20.13;13.32;;;;;;;-144.73;100.00;54502.13;4992099;28;20127;-71
2023/08/19 04:53:00;;;;;;;26.35;14.63;;;;;;;-144.73;100.00;54481.59;5006588;28;20476;-71
2023/08/19 04:55:26;;;;;;;18.23;12.52;;;;;;;-144.73;100.00;54508.28;4993376;28;20042;-72
2023/08/19 04:57:52;;;;;;;28.50;11.57;;;;;;;-144.73;100.00;54481.59;5006878;28;20496;-71
2023/08/19 05:00:18;;;;;;;16.80;12.65;;;;;;;-144.73;100.00;54539.06;5001415;28;20034;-71
2023/08/19 05:02:46;;;;;;;19.05;11.98;;;;;;;-144.73;100.00;54514.44;5001687;28;20030;-70
2023/08/19 05:05:11;;;;;;;20.67;12.65;;;;;;;-144.73;100.00;54498.00;5002583;28;20045;-71
2023/08/19 05:07:37;;;;;;;21.30;11.75;;;;;;;-144.73;100.00;54489.81;5003890;28;20042;-71
2023/08/19 05:10:03;;;;;;;17.63;11.02;;;;;;;-144.73;100.00;54506.22;4996855;28;20034;-71
2023/08/19 05:12:29;;;;;;;18.00;12.50;;;;;;;-144.73;100.00;54514.44;5001945;28;20088;-72
2023/08/19 05:14:55;;;;;;;25.58;12.10;;;;;;;-144.73;100.00;54518.53;4997138;28;20038;-71
2023/08/19 05:17:20;;;;;;;24.60;11.05;;;;;;;-144.73;100.00;54522.63;5003051;28;20025;-71
2023/08/19 05:19:46;;;;;;;15.63;10.65;;;;;;;-144.73;100.00;54479.53;5011708;28;20034;-71
2023/08/19 05:22:11;;;;;;;16.73;10.95;;;;;;;-144.73;100.00;54510.31;5005477;28;20129;-70
2023/08/19 05:24:37;;;;;;;14.77;10.55;;;;;;;-144.73;100.00;54518.53;5004351;28;20066;-71
2023/08/19 05:27:02;;;;;;;12.77;9.93;;;;;;;-144.73;100.00;54483.66;5006689;28;20021;-71
2023/08/19 05:29:27;;;;;;;18.38;11.00;;;;;;;-144.73;100.00;54489.81;4999169;28;20042;-71
2023/08/19 05:31:54;;;;;;;19.58;11.32;;;;;;;-144.73;100.00;54469.28;5004148;28;20033;-70
2023/08/19 05:34:20;;;;;;;13.93;9.80;;;;;;;-144.73;100.00;54498.00;5007333;28;20026;-71
2023/08/19 05:36:45;;;;;;;25.95;9.55;;;;;;;-144.73;100.00;54502.13;5011858;28;20014;-71
2023/08/19 05:39:10;;;;;;;19.17;10.20;;;;;;;-144.73;100.00;54510.31;4995011;28;20042;-71
2023/08/19 05:41:36;;;;;;;11.27;8.60;;;;;;;-144.73;100.00;54539.06;4995542;28;20030;-72
2023/08/19 05:44:01;;;;;;;14.82;10.35;;;;;;;-144.73;100.00;54522.63;5002239;28;20021;-71
2023/08/19 05:46:27;;;;;;;16.38;10.45;;;;;;;-144.73;100.00;54518.53;5005849;28;20025;-72
2023/08/19 05:48:52;;;;;;;17.45;9.85;;;;;;;-144.73;100.00;54528.81;5002137;28;20029;-71
2023/08/19 05:51:18;;;;;;;15.35;9.98;;;;;;;-144.73;100.00;54518.53;4995455;28;20485;-71
2023/08/19 05:53:43;;;;;;;16.27;9.65;;;;;;;-144.73;100.00;54481.59;4995053;28;20440;-71
2023/08/19 05:56:09;;;;;;;15.00;10.82;;;;;;;-144.73;100.00;54493.91;4998794;28;20041;-71
2023/08/19 05:58:35;;;;;;;15.88;9.43;;;;;;;-144.73;100.00;54510.31;4999628;28;20120;-71
2023/08/19 06:01:03;;;;;;;14.77;9.80;;;;;;;-144.73;100.00;54489.81;4991005;28;20037;-72
2023/08/19 06:03:28;;;;;;;13.65;9.07;;;;;;;-144.73;100.00;54514.44;4992692;28;20073;-70
2023/08/19 06:05:53;;;;;;;15.57;9.48;;;;;;;-144.73;100.00;54481.59;4995978;28;20560;-72
2023/08/19 06:08:19;;;;;;;17.17;9.43;;;;;;;-144.73;100.00;54463.13;4991430;28;20077;-71
2023/08/19 06:10:44;;;;;;;22.40;10.20;;;;;;;-144.73;100.00;54502.13;4991276;28;20057;-71
2023/08/19 06:13:10;;;;;;;18.70;9.15;;;;;;;-144.73;100.00;54512.38;4989142;28;20023;-72
2023/08/19 06:15:36;;;;;;;16.17;9.88;;;;;;;-144.73;100.00;54518.53;4990579;28;20034;-71
2023/08/19 06:18:01;;;;;;;15.73;9.23;;;;;;;-144.73;100.00;54512.38;4992794;28;20029;-72
2023/08/19 06:20:27;;;;;;;13.48;9.98;;;;;;;-144.73;100.00;54498.00;4990314;28;20058;-72
2023/08/19 06:22:52;;;;;;;13.73;8.93;;;;;;;-144.73;100.00;54518.53;4993041;28;20105;-72
2023/08/19 06:25:17;;;;;;;13.63;9.02;;;;;;;-144.73;100.00;54485.69;5005999;28;20077;-72
2023/08/19 06:27:43;;;;;;;14.55;9.10;;;;;;;-144.73;100.00;54493.91;4998591;28;20022;-72
2023/08/19 06:30:09;;;;;;;12.77;9.57;;;;;;;-144.73;100.00;54493.91;4997123;28;20041;-72
2023/08/19 06:32:35;;;;;;;22.20;10.45;;;;;;;-144.73;100.00;54477.47;5000077;28;20046;-72
2023/08/19 06:35:02;;;;;;;18.88;10.52;;;;;;;-144.73;100.00;54516.47;4998492;28;20030;-72
2023/08/19 06:37:30;;;;;;;14.90;9.30;;;;;;;-144.73;100.00;54510.31;4997677;28;20022;-72
2023/08/19 06:39:58;;;;;;;12.48;9.02;;;;;;;-144.73;100.00;54473.38;4995096;28;20036;-72
2023/08/19 06:42:25;;;;;;;22.73;9.75;;;;;;;-144.73;100.00;54498.00;5005060;28;20025;-72
2023/08/19 06:44:56;;;;;;;14.63;8.65;;;;;;;-144.73;100.00;54502.13;4998195;28;20061;-72
2023/08/19 06:47:22;;;;;;;14.00;10.30;;;;;;;-144.73;100.00;54473.38;5000156;28;20033;-70
2023/08/19 06:49:48;;;;;;;16.08;8.50;;;;;;;-144.73;100.00;54498.00;4994397;28;20038;-71
2023/08/19 06:52:13;;;;;;;13.75;9.48;;;;;;;-144.73;100.00;54469.28;4990528;28;20026;-71
2023/08/19 06:54:39;;;;;;;19.05;11.82;;;;;;;-144.73;100.00;54469.28;4991392;28;20045;-71
2023/08/19 06:57:06;;;;;;;19.05;9.57;;;;;;;-144.73;100.00;54454.91;4991045;28;20101;-71
2023/08/19 06:59:36;;;;;;;21.00;9.52;;;;;;;-144.73;100.00;54481.59;4989716;28;20049;-72
2023/08/19 07:02:03;;;;;;;13.05;8.85;;;;;;;-144.73;100.00;54481.59;5001535;28;20037;-72
2023/08/19 07:04:30;;;;;;;14.25;9.30;;;;;;;-144.73;100.00;54477.47;5004416;28;20045;-72
2023/08/19 07:06:58;;;;;;;14.15;9.77;;;;;;;-144.73;100.00;54473.38;4995044;28;20069;-71
2023/08/19 07:09:24;;;;;;;17.35;10.07;;;;;;;-144.73;100.00;54477.47;5000140;28;20029;-71
2023/08/19 07:11:52;;;;;;;16.38;9.60;;;;;;;-144.73;100.00;54483.66;4982019;28;20018;-71
2023/08/19 07:14:18;;;;;;;15.52;9.52;;;;;;;-144.73;100.00;54452.84;4989921;28;20029;-72
2023/08/19 07:16:43;;;;;;;12.38;9.43;;;;;;;-144.73;100.00;54452.84;4991180;28;20026;-72
2023/08/19 07:19:13;;;;;;;14.73;8.65;;;;;;;-144.73;100.00;54495.97;4989432;28;20489;-72
2023/08/19 07:21:41;;;;;;;14.85;9.05;;;;;;;-144.73;100.00;54461.06;4995109;28;20053;-72
2023/08/19 07:24:07;;;;;;;16.40;9.63;;;;;;;-144.73;100.00;54500.06;4996588;28;20030;-71
2023/08/19 07:26:34;;;;;;;18.02;8.43;;;;;;;-144.73;100.00;54510.31;4994641;28;20026;-72
2023/08/19 07:29:00;;;;;;;15.02;9.90;;;;;;;-144.73;100.00;54502.13;5001311;28;20022;-72
2023/08/19 07:31:26;;;;;;;11.43;8.45;;;;;;;-144.73;100.00;54467.22;4999123;28;20573;-72
2023/08/19 07:33:51;;;;;;;9.77;8.52;;;;;;;-144.73;100.00;54459.00;4992163;28;20092;-72
2023/08/19 07:36:16;;;;;;;14.80;9.32;;;;;;;-144.73;100.00;54467.22;4992641;28;20101;-73
2023/08/19 07:38:42;;;;;;;14.52;8.68;;;;;;;-144.73;100.00;54409.75;4999344;28;20097;-73
2023/08/19 07:41:08;;;;;;;13.55;9.07;;;;;;;-144.73;100.00;54465.16;4991029;28;20041;-73
2023/08/19 07:43:34;;;;;;;14.27;8.50;;;;;;;-144.73;100.00;54446.69;4991393;28;20125;-72
2023/08/19 07:45:59;;;;;;;12.85;8.00;;;;;;;-144.73;100.00;54444.66;4988854;28;20030;-73
2023/08/19 07:48:25;;;;;;;14.25;8.77;;;;;;;-144.73;100.00;54411.81;4988146;28;20018;-74
2023/08/19 07:50:50;;;;;;;13.93;7.82;;;;;;;-144.73;100.00;54448.75;4986193;28;20137;-74
2023/08/19 07:53:16;;;;;;;14.27;8.90;;;;;;;-144.73;100.00;54446.69;4987332;28;20084;-74
2023/08/19 07:55:41;;;;;;;12.18;9.68;;;;;;;-144.73;100.00;54436.44;4985013;28;20061;-74
2023/08/19 07:58:07;;;;;;;14.38;8.65;;;;;;;-144.73;100.00;54411.81;4986719;28;20046;-74
2023/08/19 08:00:33;;;;;;;13.80;9.23;;;;;;;-144.73;100.00;54411.81;4982385;28;20106;-74
2023/08/19 08:02:59;;;;;;;11.48;8.10;;;;;;;-144.73;100.00;54436.44;4987654;28;20019;-74
2023/08/19 08:05:24;;;;;;;14.55;9.63;;;;;;;-144.73;100.00;54428.22;4991542;28;20037;-74
2023/08/19 08:07:49;;;;;;;13.95;9.23;;;;;;;-144.73;100.00;54413.84;4993056;28;20113;-74
2023/08/19 08:10:15;;;;;;;15.95;9.02;;;;;;;-144.73;100.00;54387.19;4991931;28;20034;-74
2023/08/19 08:12:40;;;;;;;14.27;8.65;;;;;;;-144.73;100.00;54469.28;4993169;28;20041;-73
2023/08/19 08:15:07;;;;;;;11.27;8.30;;;;;;;-144.73;100.00;54415.91;4992765;28;20031;-74
2023/08/19 08:17:32;;;;;;;16.83;9.52;;;;;;;-144.73;100.00;54428.22;4991452;28;20089;-73
2023/08/19 08:19:58;;;;;;;11.48;8.48;;;;;;;-144.73;100.00;54452.84;4992290;28;20034;-74
2023/08/19 08:22:23;;;;;;;16.30;9.40;;;;;;;-144.73;100.00;54411.81;4996761;28;20038;-74
2023/08/19 08:24:49;;;;;;;13.52;8.55;;;;;;;-144.73;100.00;54407.69;4991764;28;20038;-74
2023/08/19 08:27:15;;;;;;;11.65;8.07;;;;;;;-144.73;100.00;54422.06;4991265;28;20041;-74
2023/08/19 08:29:40;;;;;;;11.65;8.77;;;;;;;-144.73;100.00;54432.31;4989482;28;20038;-73
2023/08/19 08:32:06;;;;;;;16.73;8.90;;;;;;;-144.73;100.00;54407.69;4993241;28;20022;-74
2023/08/19 08:34:31;;;;;;;10.93;8.68;;;;;;;-144.73;100.00;54440.53;4992287;28;20046;-73
2023/08/19 08:36:57;;;;;;;16.58;8.18;;;;;;;-144.73;100.00;54395.38;4993139;28;20081;-77
2023/08/19 08:39:22;;;;;;;20.80;8.30;;;;;;;-144.73;100.00;54350.22;4990649;28;20034;-77
2023/08/19 08:41:50;;;;;;;9.68;7.55;;;;;;;-144.73;100.00;54383.06;4992679;28;20081;-79
2023/08/19 08:44:16;;;;;;;12.80;8.30;;;;;;;-144.73;100.00;54387.19;4997097;28;20046;-77
2023/08/19 08:46:44;;;;;;;10.45;8.57;;;;;;;-144.73;100.00;54391.28;4991977;28;20026;-77
2023/08/19 08:49:09;;;;;;;16.55;8.73;;;;;;;-144.73;100.00;54415.91;4992540;28;20033;-78
2023/08/19 08:51:35;;;;;;;14.30;8.45;;;;;;;-144.73;100.00;54370.75;4994596;28;20105;-77
2023/08/19 08:54:02;;;;;;;13.63;8.23;;;;;;;-144.73;100.00;54393.34;4999243;28;20037;-76
2023/08/19 08:56:27;;;;;;;12.82;7.70;;;;;;;-144.73;100.00;54399.50;5000666;28;20092;-77
2023/08/19 08:58:53;;;;;;;14.20;9.23;;;;;;;-144.73;100.00;54428.22;5009597;28;20026;-78
2023/08/19 09:01:22;;;;;;;9.88;8.00;;;;;;;-144.73;100.00;54411.81;4998753;28;20025;-77
2023/08/19 09:03:51;;;;;;;11.10;8.15;;;;;;;-144.73;100.00;54407.69;5000018;28;20054;-77
2023/08/19 09:06:17;;;;;;;10.70;8.65;;;;;;;-144.73;100.00;54399.50;5001454;28;20084;-78
2023/08/19 09:08:52;;;;;;;14.40;9.05;;;;;;;-144.73;100.00;54395.38;5000136;28;20026;-77
2023/08/19 09:11:22;;;;;;;16.23;7.88;;;;;;;-144.73;100.00;54411.81;5009191;28;20467;-78
2023/08/19 09:13:55;;;;;;;13.32;8.30;;;;;;;-144.73;100.00;54436.44;5002794;28;20034;-78
2023/08/19 09:16:21;;;;;;;10.90;7.88;;;;;;;-144.73;100.00;54395.38;4971401;28;20045;-77
2023/08/19 09:18:47;;;;;;;18.50;8.02;;;;;;;-144.73;100.00;54370.75;4970292;28;20031;-77
2023/08/19 09:21:12;;;;;;;13.40;8.52;;;;;;;-144.73;100.00;54407.69;4985314;28;20034;-77
2023/08/19 09:23:39;;;;;;;11.82;8.80;;;;;;;-144.73;100.00;54411.81;4982392;28;20041;-77
2023/08/19 09:26:05;;;;;;;12.05;8.13;;;;;;;-144.73;100.00;54372.81;4995266;28;20113;-77
2023/08/19 09:28:34;;;;;;;17.27;9.20;;;;;;;-144.73;100.00;54407.69;4997248;28;20086;-77
2023/08/19 09:30:59;;;;;;;14.18;8.73;;;;;;;-144.73;100.00;54391.28;4976432;28;20057;-78
2023/08/19 09:33:25;;;;;;;9.77;8.23;;;;;;;-144.73;100.00;54395.38;4984353;28;20054;-78
2023/08/19 09:35:57;;;;;;;10.50;8.52;;;;;;;-144.73;100.00;54374.84;4971033;28;20042;-78
2023/08/19 09:38:26;;;;;;;11.48;8.48;;;;;;;-144.73;100.00;54407.69;4981017;28;20096;-78
2023/08/19 09:40:57;;;;;;;10.18;8.75;;;;;;;-144.73;100.00;54366.66;4977347;28;20126;-78
2023/08/19 09:43:23;;;;;;;12.50;9.13;;;;;;;-144.73;100.00;54432.31;4979823;28;20129;-78
2023/08/19 09:45:48;;;;;;;13.45;9.70;;;;;;;-144.73;100.00;54415.91;4968221;28;20113;-78
2023/08/19 09:48:14;;;;;;;12.05;9.55;;;;;;;-144.73;100.00;54391.28;4968336;28;20021;-78
2023/08/19 09:50:44;;;;;;;14.13;8.85;;;;;;;-144.73;100.00;54358.44;4968314;28;20048;-78
2023/08/19 09:53:15;;;;;;;11.20;9.32;;;;;;;-144.73;100.00;54395.38;4971167;28;20030;-78
2023/08/19 09:55:45;;;;;;;20.90;8.93;;;;;;;-144.73;100.00;54350.22;4968693;28;20079;-78
2023/08/19 09:58:10;;;;;;;11.07;8.93;;;;;;;-144.73;100.00;54364.59;4970428;28;20480;-79
2023/08/19 10:00:36;;;;;;;14.45;9.70;;;;;;;-144.73;100.00;54358.44;4967775;28;20035;-78
2023/08/19 10:03:02;;;;;;;12.27;8.95;;;;;;;-144.73;100.00;54387.19;4969642;28;20034;-78
2023/08/19 10:05:31;;;;;;;16.27;9.93;;;;;;;-144.73;100.00;54362.53;4968525;28;20070;-78
2023/08/19 10:08:01;;;;;;;12.02;8.82;;;;;;;-144.73;100.00;54337.91;4967874;28;20026;-78
2023/08/19 10:10:30;;;;;;;17.17;10.23;;;;;;;-144.73;100.00;54354.34;4973838;28;20035;-78
2023/08/19 10:12:57;;;;;;;13.85;9.82;;;;;;;-144.73;100.00;54383.06;4978748;28;20022;-78
2023/08/19 10:15:25;;;;;;;17.67;9.65;;;;;;;-144.73;100.00;54378.97;4965215;28;20062;-78
2023/08/19 10:17:56;;;;;;;16.98;8.80;;;;;;;-144.73;100.00;54415.91;4966724;28;20054;-79
2023/08/19 10:20:25;;;;;;;19.52;9.80;;;;;;;-144.73;100.00;54346.13;4967857;28;20078;-78
2023/08/19 10:22:54;;;;;;;10.60;9.50;;;;;;;-144.73;100.00;54350.22;4970356;28;20110;-78
2023/08/19 10:25:21;;;;;;;14.05;9.23;;;;;;;-144.73;100.00;54354.34;4969842;28;20038;-79
2023/08/19 10:27:46;;;;;;;14.85;9.48;;;;;;;-144.73;100.00;54290.72;4968160;28;20343;-78
2023/08/19 10:30:33;;;;;;;19.52;10.05;;;;;;;-144.73;100.00;54337.91;4969394;28;20023;-79
2023/08/19 10:33:04;;;;;;;17.15;9.20;;;;;;;-144.73;100.00;54333.81;4968774;28;20035;-78
2023/08/19 10:35:57;;;;;;;17.20;10.20;;;;;;;-144.73;100.00;54368.69;4967852;28;20041;-78
2023/08/19 10:38:23;;;;;;;17.50;9.30;;;;;;;-144.73;100.00;54313.28;4968837;28;20102;-79
2023/08/19 10:41:00;;;;;;;13.35;9.05;;;;;;;-144.73;100.00;54311.22;4968881;28;20134;-79
2023/08/19 10:43:25;;;;;;;12.77;9.63;;;;;;;-144.73;100.00;54292.75;4970391;28;20051;-79
2023/08/19 10:45:57;;;;;;;10.30;8.68;;;;;;;-144.73;100.00;54337.91;4971012;28;20038;-79
2023/08/19 10:48:32;;;;;;;17.25;9.25;;;;;;;-144.73;99.63;54309.19;4969405;28;20011;-79
2023/08/19 10:50:58;;;;;;;14.90;10.23;;;;;;;-144.73;100.00;54309.19;4971489;28;20066;-77
2023/08/19 10:53:24;;;;;;;12.82;9.00;;;;;;;-144.73;100.00;54309.19;4970327;28;20054;-79
2023/08/19 10:55:55;;;;;;;14.25;9.02;;;;;;;-144.73;98.20;54329.72;4969103;28;20046;-78